Time;durP1;ratioP1;P1;durP2;ratioP2;P2;SDS_P1;SDS_P2;PMS_P1;PMS_P2;Temp;Humidity;BMP_temperature;BMP_pressure;BME280_temperature;BME280_humidity;BME280_pressure;Samples;Min_cycle;Max_cycle;Signal;HPM_P1;HPM_P2
2022/07/21 00:00:26;;;;;;;10.88;4.38;;;;;;;23.08;56.71;100435.44;4984277;28;20090;-72
2022/07/21 00:02:55;;;;;;;17.40;4.85;;;;;;;23.25;56.71;100464.72;4992143;28;20082;-72
2022/07/21 00:05:23;;;;;;;14.93;4.88;;;;;;;23.06;57.21;100439.84;4990690;28;20503;-72
2022/07/21 00:07:51;;;;;;;17.92;4.60;;;;;;;23.11;57.30;100459.50;4989750;28;20133;-72
2022/07/21 00:10:21;;;;;;;19.10;5.20;;;;;;;23.12;57.65;100464.84;4993993;28;20137;-72
2022/07/21 00:12:48;;;;;;;12.32;4.47;;;;;;;23.06;57.28;100454.91;4989643;28;20054;-72
2022/07/21 00:15:18;;;;;;;16.73;4.32;;;;;;;23.09;57.22;100447.66;4992418;28;20137;-72
2022/07/21 00:17:45;;;;;;;14.75;5.00;;;;;;;22.99;57.73;100442.53;4990948;28;20921;-72
2022/07/21 00:20:14;;;;;;;12.35;4.55;;;;;;;23.06;57.72;100454.09;4989325;28;20093;-72
2022/07/21 00:22:42;;;;;;;13.90;4.10;;;;;;;23.09;57.92;100465.56;4991717;28;20133;-72
2022/07/21 00:25:11;;;;;;;16.08;4.45;;;;;;;23.06;57.86;100459.78;4991789;28;20046;-72
2022/07/21 00:27:38;;;;;;;9.18;4.72;;;;;;;23.04;57.55;100456.47;4989136;28;20141;-73
2022/07/21 00:30:07;;;;;;;12.93;4.65;;;;;;;23.03;57.78;100449.13;4991300;28;20082;-72
2022/07/21 00:32:35;;;;;;;15.02;4.25;;;;;;;22.99;58.07;100459.59;4991424;28;20077;-73
2022/07/21 00:35:04;;;;;;;15.07;5.03;;;;;;;22.99;58.08;100462.44;4989488;28;20470;-73
2022/07/21 00:37:31;;;;;;;16.63;5.88;;;;;;;22.79;58.00;100452.94;4987787;28;20133;-72
2022/07/21 00:39:59;;;;;;;13.10;4.28;;;;;;;22.79;58.32;100453.75;4978336;28;20140;-72
2022/07/21 00:42:29;;;;;;;12.90;4.03;;;;;;;22.84;58.50;100447.00;4997542;28;20078;-72
2022/07/21 00:44:56;;;;;;;;;;;;;;;22.78;58.96;100449.28;4989289;28;20081;-72
2022/07/21 00:47:28;;;;;;;14.18;4.22;;;;;;;22.92;58.36;100461.06;4989881;28;20012;-72
2022/07/21 00:49:57;;;;;;;14.38;3.92;;;;;;;22.78;58.57;100437.88;4981330;28;20055;-72
2022/07/21 00:52:25;;;;;;;19.30;4.63;;;;;;;22.75;58.52;100430.06;4991400;28;20077;-73
2022/07/21 00:54:52;;;;;;;7.93;3.53;;;;;;;22.96;58.57;100454.63;4992673;28;20526;-72
2022/07/21 00:57:19;;;;;;;13.55;3.97;;;;;;;22.74;58.88;100430.47;4988053;28;20062;-72
2022/07/21 00:59:47;;;;;;;14.30;4.43;;;;;;;22.82;58.92;100441.66;4993714;28;20050;-72
2022/07/21 01:02:14;;;;;;;14.63;5.32;;;;;;;22.78;58.64;100432.19;4991135;28;20133;-72
2022/07/21 01:04:41;;;;;;;15.60;4.30;;;;;;;22.86;59.05;100453.13;4989983;28;20070;-71
2022/07/21 01:07:08;;;;;;;11.95;3.88;;;;;;;22.83;59.01;100451.00;4986392;28;20077;-72
2022/07/21 01:09:35;;;;;;;9.95;3.60;;;;;;;22.74;59.38;100444.69;4987586;28;20085;-72
2022/07/21 01:12:03;;;;;;;14.57;4.80;;;;;;;22.92;59.07;100437.44;4990143;28;20073;-72
2022/07/21 01:14:31;;;;;;;10.85;3.88;;;;;;;22.91;59.27;100445.16;4993379;28;20045;-71
2022/07/21 01:17:01;;;;;;;6.18;3.22;;;;;;;22.63;59.19;100384.59;4986772;28;20511;-72
2022/07/21 01:19:28;;;;;;;13.30;3.40;;;;;;;22.83;59.49;100382.69;4987882;28;20133;-72
2022/07/21 01:21:55;;;;;;;15.32;3.80;;;;;;;23.25;58.71;100425.69;4988530;28;20074;-72
2022/07/21 01:24:22;;;;;;;10.65;3.65;;;;;;;23.36;58.81;100432.47;4987455;28;20074;-70
2022/07/21 01:26:52;;;;;;;8.60;3.92;;;;;;;23.33;58.71;100413.25;4994062;28;20477;-72
2022/07/21 01:29:20;;;;;;;10.93;3.75;;;;;;;23.19;58.88;100401.53;4986714;28;20047;-72
2022/07/21 01:31:48;;;;;;;13.45;4.32;;;;;;;23.31;58.62;100421.34;4989897;28;20055;-72
2022/07/21 01:34:15;;;;;;;13.68;3.65;;;;;;;23.46;58.51;100430.25;4988423;28;20077;-72
2022/07/21 01:36:42;;;;;;;17.13;3.90;;;;;;;23.57;58.37;100417.06;4982949;28;20070;-71
2022/07/21 01:41:55;;;;;;;7.53;3.83;;;;;;;23.76;58.13;100413.44;4989430;28;20050;-72
2022/07/21 01:44:22;;;;;;;7.65;4.03;;;;;;;23.44;57.99;100387.03;4989972;28;20050;-71
2022/07/21 01:46:51;;;;;;;10.02;4.38;;;;;;;23.53;58.59;100414.13;4985165;28;20129;-71
2022/07/21 01:49:20;;;;;;;13.68;4.50;;;;;;;23.47;58.18;100377.75;4981189;28;20078;-71
2022/07/21 01:51:48;;;;;;;7.10;3.53;;;;;;;23.78;58.16;100400.47;4985630;28;20590;-71
2022/07/21 01:54:15;;;;;;;15.38;4.90;;;;;;;23.94;57.68;100414.66;4989468;28;20096;-71
2022/07/21 01:56:49;;;;;;;13.23;4.30;;;;;;;23.96;57.66;100388.63;4991285;28;20463;-71
2022/07/21 01:59:16;;;;;;;11.07;4.55;;;;;;;24.01;56.58;100396.88;4984993;28;20046;-72
2022/07/21 02:01:43;;;;;;;11.07;3.83;;;;;;;23.99;57.24;100388.69;4986834;28;20130;-72
2022/07/21 02:04:10;;;;;;;14.43;4.13;;;;;;;24.21;56.99;100411.97;4978139;28;20047;-72
2022/07/21 02:06:37;;;;;;;11.98;4.93;;;;;;;24.09;56.51;100388.09;4995793;28;20058;-72
2022/07/21 02:09:06;;;;;;;14.90;4.30;;;;;;;24.15;56.68;100391.47;4983267;28;20046;-71
2022/07/21 02:11:34;;;;;;;10.45;3.58;;;;;;;24.09;56.90;100381.56;4981503;28;20093;-72
2022/07/21 02:14:01;;;;;;;14.45;4.80;;;;;;;24.25;56.29;100407.16;4991149;28;20082;-72
2022/07/21 02:16:29;;;;;;;16.67;4.97;;;;;;;24.04;56.57;100379.84;4990208;28;20058;-72
2022/07/21 02:18:56;;;;;;;9.52;4.47;;;;;;;23.91;56.76;100369.78;4987645;28;20451;-72
2022/07/21 02:21:23;;;;;;;12.55;4.15;;;;;;;24.03;56.64;100405.88;4985220;28;20050;-73
2022/07/21 02:23:51;;;;;;;11.07;4.60;;;;;;;23.94;56.71;100376.78;4983116;28;20466;-72
2022/07/21 02:26:18;;;;;;;14.27;4.68;;;;;;;24.19;56.26;100406.63;4986068;28;20191;-72
2022/07/21 02:28:45;;;;;;;16.15;4.78;;;;;;;24.19;56.66;100402.94;4984344;28;20116;-72
2022/07/21 02:31:12;;;;;;;9.93;3.90;;;;;;;24.03;56.63;100405.88;4984653;28;20141;-72
2022/07/21 02:33:39;;;;;;;10.65;4.18;;;;;;;23.88;56.37;100396.19;4988844;28;20503;-72
2022/07/21 02:36:06;;;;;;;13.32;4.70;;;;;;;23.86;56.58;100379.47;4978133;28;20078;-72
2022/07/21 02:38:33;;;;;;;12.25;5.28;;;;;;;24.05;56.33;100409.19;4983099;28;20050;-72
2022/07/21 02:41:00;;;;;;;13.27;5.45;;;;;;;24.00;56.53;100401.75;4983840;28;20439;-72
2022/07/21 02:43:27;;;;;;;9.95;4.60;;;;;;;24.05;56.55;100410.00;4986518;28;20579;-72
2022/07/21 02:45:54;;;;;;;14.63;4.78;;;;;;;23.80;56.93;100383.00;4983492;28;20073;-72
2022/07/21 02:48:21;;;;;;;16.92;4.47;;;;;;;23.63;56.88;100348.00;4990771;28;20054;-73
2022/07/21 02:50:48;;;;;;;16.08;5.07;;;;;;;23.94;56.57;100391.03;4985506;28;20133;-72
2022/07/21 02:53:19;;;;;;;9.75;5.07;;;;;;;23.65;57.11;100364.72;4990513;28;20360;-72
2022/07/21 02:55:48;;;;;;;11.55;4.80;;;;;;;23.72;56.85;100413.34;4986840;28;20101;-72
2022/07/21 02:58:20;;;;;;;10.48;3.92;;;;;;;23.76;57.14;100402.88;4988645;28;20050;-72
2022/07/21 03:00:56;;;;;;;11.07;4.45;;;;;;;23.74;56.83;100395.91;4989253;28;20459;-72
2022/07/21 03:03:25;;;;;;;19.58;6.20;;;;;;;23.64;57.62;100400.13;4991133;28;20109;-72
2022/07/21 03:05:53;;;;;;;13.50;5.70;;;;;;;23.60;57.15;100370.72;4989701;28;20046;-72
2022/07/21 03:08:20;;;;;;;10.43;4.85;;;;;;;23.87;56.88;100398.22;4980433;28;20133;-73
2022/07/21 03:10:48;;;;;;;12.85;4.78;;;;;;;23.72;56.83;100373.44;4984187;28;20050;-72
2022/07/21 03:13:15;;;;;;;11.27;4.93;;;;;;;23.92;56.58;100399.13;4987538;28;20137;-72
2022/07/21 03:15:42;;;;;;;14.30;4.10;;;;;;;23.73;56.77;100405.66;4994606;28;20042;-73
2022/07/21 03:18:09;;;;;;;14.32;5.90;;;;;;;23.61;56.63;100400.88;4985306;28;20082;-71
2022/07/21 03:20:40;;;;;;;13.73;5.00;;;;;;;23.39;56.95;100391.00;4981314;28;20090;-71
2022/07/21 03:23:06;;;;;;;12.65;5.13;;;;;;;23.25;57.04;100393.50;4989423;28;20070;-72
2022/07/21 03:25:33;;;;;;;18.00;6.47;;;;;;;23.03;57.12;100386.47;4987310;28;20096;-72
2022/07/21 03:28:01;;;;;;;12.07;6.13;;;;;;;22.88;57.49;100390.97;4984233;28;20114;-72
2022/07/21 03:30:28;;;;;;;12.70;6.05;;;;;;;22.66;57.78;100370.47;4986899;28;20597;-71
2022/07/21 03:32:55;;;;;;;12.98;6.30;;;;;;;22.69;58.47;100386.00;4989880;28;20086;-72
2022/07/21 03:35:22;;;;;;;12.30;5.97;;;;;;;22.80;58.42;100401.31;4983494;28;20113;-71
2022/07/21 03:37:57;;;;;;;12.45;5.70;;;;;;;22.71;58.57;100403.53;4991715;28;20038;-65
2022/07/21 03:40:27;;;;;;;17.42;5.65;;;;;;;22.71;58.60;100403.53;4988419;28;20050;-71
2022/07/21 03:42:56;;;;;;;16.75;5.63;;;;;;;22.58;58.84;100397.09;4989294;28;20153;-71
2022/07/21 03:45:24;;;;;;;11.60;6.33;;;;;;;22.47;58.75;100405.34;4985885;28;20086;-72
2022/07/21 03:47:51;;;;;;;19.13;7.55;;;;;;;22.39;59.03;100419.72;4985159;28;20515;-71
2022/07/21 03:50:18;;;;;;;12.93;7.40;;;;;;;22.12;59.34;100381.56;4988887;28;20169;-71
2022/07/21 03:53:00;;;;;;;16.15;7.50;;;;;;;22.14;59.49;100396.25;4985866;28;20101;-71
2022/07/21 03:55:28;;;;;;;14.93;7.82;;;;;;;22.09;60.07;100410.75;4984859;28;20086;-71
2022/07/21 03:58:00;;;;;;;18.55;9.40;;;;;;;21.99;59.86;100400.72;4984199;28;20134;-71
2022/07/21 04:00:30;;;;;;;15.98;7.47;;;;;;;22.04;60.44;100411.81;4976618;28;20059;-71
2022/07/21 04:02:57;;;;;;;;;;;;;;;21.87;60.78;100401.56;4989060;28;20046;-70
2022/07/21 04:05:25;;;;;;;18.92;7.18;;;;;;;22.05;60.73;100393.56;4989875;28;20021;-71
2022/07/21 04:07:53;;;;;;;17.20;7.97;;;;;;;22.26;60.34;100398.22;4982816;28;20043;-71
2022/07/21 04:10:24;;;;;;;17.77;8.02;;;;;;;22.22;60.01;100403.81;4981626;28;20061;-72
2022/07/21 04:12:52;;;;;;;25.42;8.43;;;;;;;22.22;60.53;100403.81;4982443;28;20046;-72
2022/07/21 04:15:19;;;;;;;17.80;8.27;;;;;;;22.23;60.76;100400.63;4984955;28;20051;-71
2022/07/21 04:17:48;;;;;;;16.40;8.23;;;;;;;22.33;61.01;100398.44;4995660;28;20054;-72
2022/07/21 04:20:15;;;;;;;14.05;7.90;;;;;;;22.43;60.97;100393.06;4987519;28;20082;-72
2022/07/21 04:22:44;;;;;;;20.63;9.02;;;;;;;22.28;60.49;100382.44;4991527;28;20082;-72
2022/07/21 04:25:12;;;;;;;17.47;8.63;;;;;;;22.32;60.05;100408.16;4983972;28;20093;-72
2022/07/21 04:27:40;;;;;;;22.73;9.25;;;;;;;22.03;60.74;100387.41;4968701;28;20090;-72
2022/07/21 04:30:09;;;;;;;23.70;9.07;;;;;;;21.92;60.83;100389.13;4987553;28;20085;-72
2022/07/21 04:32:36;;;;;;;21.35;9.10;;;;;;;21.85;61.26;100395.44;4987366;28;20085;-71
2022/07/21 04:35:07;;;;;;;20.58;9.27;;;;;;;21.77;61.97;100376.50;4985068;28;20510;-72
2022/07/21 04:37:35;;;;;;;18.52;9.10;;;;;;;21.94;61.67;100393.25;4985228;28;20146;-72
2022/07/21 04:40:04;;;;;;;28.23;11.15;;;;;;;21.87;61.45;100375.97;4990461;28;20092;-72
2022/07/21 04:42:31;;;;;;;23.90;10.20;;;;;;;21.81;61.50;100385.94;4987684;28;20086;-72
2022/07/21 04:44:59;;;;;;;22.55;8.80;;;;;;;21.75;62.23;100373.19;4978706;28;20530;-72
2022/07/21 04:47:27;;;;;;;20.13;9.63;;;;;;;22.20;62.65;100407.03;4988399;28;20057;-72
2022/07/21 04:49:54;;;;;;;19.10;8.88;;;;;;;22.52;62.05;100412.78;4975753;28;20082;-73
2022/07/21 04:52:20;;;;;;;19.13;9.48;;;;;;;22.52;61.24;100378.63;4989297;28;20046;-72
2022/07/21 04:54:47;;;;;;;19.30;9.65;;;;;;;22.66;61.08;100407.47;4986113;28;20133;-71
2022/07/21 04:57:14;;;;;;;18.20;8.80;;;;;;;22.42;61.01;100402.75;4975873;28;20077;-72
2022/07/21 04:59:41;;;;;;;24.40;9.77;;;;;;;22.19;61.07;100381.81;4986544;28;20116;-72
2022/07/21 05:02:08;;;;;;;36.90;12.45;;;;;;;22.06;60.96;100394.41;4994899;28;20142;-73
2022/07/21 05:04:35;;;;;;;25.70;11.95;;;;;;;22.17;61.51;100409.78;4985269;28;20059;-72
2022/07/21 05:07:02;;;;;;;22.25;10.55;;;;;;;22.09;61.50;100413.59;4981616;28;20082;-72
2022/07/21 05:09:29;;;;;;;23.88;9.75;;;;;;;21.85;62.00;100381.22;4990579;28;20066;-72
2022/07/21 05:11:55;;;;;;;20.35;9.40;;;;;;;21.95;62.06;100409.13;4987491;28;20136;-72
2022/07/21 05:14:22;;;;;;;21.63;10.48;;;;;;;21.86;62.35;100384.88;4992093;28;20473;-72
2022/07/21 05:16:49;;;;;;;24.70;10.77;;;;;;;21.94;62.12;100386.72;4988892;28;20042;-72
2022/07/21 05:19:16;;;;;;;20.67;9.68;;;;;;;21.83;62.09;100328.75;4991986;28;20090;-72
2022/07/21 05:21:43;;;;;;;23.65;10.18;;;;;;;22.37;61.80;100385.97;4983097;28;20145;-72
2022/07/21 05:24:10;;;;;;;21.42;9.70;;;;;;;22.45;61.92;100384.97;4990827;28;20054;-72
2022/07/21 05:26:37;;;;;;;17.40;7.68;;;;;;;22.59;61.64;100386.53;4991208;28;20129;-72
2022/07/21 05:29:04;;;;;;;17.60;9.63;;;;;;;22.43;61.71;100390.19;5001389;28;20058;-71
2022/07/21 05:31:31;;;;;;;22.75;9.68;;;;;;;22.27;61.33;100372.28;4987104;28;20089;-72
2022/07/21 05:33:58;;;;;;;18.40;10.55;;;;;;;22.31;62.09;100384.56;4989463;28;20062;-72
2022/07/21 05:36:25;;;;;;;22.13;8.18;;;;;;;22.03;62.37;100346.78;4983302;28;20089;-71
2022/07/21 05:38:52;;;;;;;24.52;9.65;;;;;;;22.36;62.42;100400.53;4985586;28;20082;-71
2022/07/21 05:41:21;;;;;;;20.98;10.20;;;;;;;22.10;62.44;100361.19;4987212;28;20047;-71
2022/07/21 05:43:48;;;;;;;20.83;9.55;;;;;;;21.99;62.41;100333.28;4985700;28;20085;-72
2022/07/21 05:46:15;;;;;;;25.45;11.13;;;;;;;22.16;62.84;100376.84;4987776;28;20138;-69
2022/07/21 05:48:42;;;;;;;23.50;10.43;;;;;;;22.12;62.44;100376.72;4984667;28;20054;-72
2022/07/21 05:51:08;;;;;;;21.77;9.70;;;;;;;22.12;62.87;100388.09;4982008;28;20134;-72
2022/07/21 05:53:43;;;;;;;27.40;9.48;;;;;;;21.80;62.40;100341.66;4986548;28;20047;-71
2022/07/21 05:56:10;;;;;;;20.40;10.80;;;;;;;21.98;62.19;100370.59;4990815;28;20100;-71
2022/07/21 05:58:38;;;;;;;23.20;11.13;;;;;;;22.12;62.00;100404.31;4982111;28;20133;-74
2022/07/21 06:01:08;;;;;;;26.52;11.55;;;;;;;21.91;61.82;100359.84;4984016;28;20088;-72
2022/07/21 06:03:41;;;;;;;31.77;13.30;;;;;;;22.22;62.03;100386.75;4983808;28;20068;-72
2022/07/21 06:06:09;;;;;;;26.65;12.57;;;;;;;22.17;61.90;100375.66;4980706;28;20081;-72
2022/07/21 06:08:39;;;;;;;30.88;12.48;;;;;;;22.39;62.02;100399.81;4984836;28;20587;-70
2022/07/21 06:11:07;;;;;;;;;;;;;;;22.31;61.74;100401.63;4979134;28;20142;-73
2022/07/21 06:13:34;;;;;;;23.95;10.05;;;;;;;22.36;61.38;100409.94;4985401;28;19926;-73
2022/07/21 06:16:01;;;;;;;26.02;11.63;;;;;;;22.40;61.64;100416.53;4981790;28;20510;-72
2022/07/21 06:18:28;;;;;;;25.10;12.32;;;;;;;22.14;61.67;100370.66;4981619;28;20093;-73
2022/07/21 06:20:55;;;;;;;23.00;10.55;;;;;;;22.31;61.89;100401.63;4988785;28;20084;-72
2022/07/21 06:23:22;;;;;;;30.85;11.55;;;;;;;22.56;61.38;100424.25;4988498;28;20463;-71
2022/07/21 06:25:51;;;;;;;25.77;11.35;;;;;;;22.57;61.35;100398.28;4987166;28;20129;-69
2022/07/21 06:28:19;;;;;;;24.58;11.20;;;;;;;22.60;61.69;100402.44;4983045;28;20499;-73
2022/07/21 06:30:46;;;;;;;25.23;12.77;;;;;;;22.55;61.28;100379.94;4987317;28;20133;-73
2022/07/21 06:33:13;;;;;;;27.00;12.20;;;;;;;22.84;61.31;100416.50;4982257;28;20078;-73
2022/07/21 06:35:41;;;;;;;25.40;12.35;;;;;;;22.88;60.58;100416.59;4980261;28;20166;-73
2022/07/21 06:38:08;;;;;;;27.13;13.10;;;;;;;22.87;60.88;100417.75;4985703;28;20089;-73
2022/07/21 06:40:40;;;;;;;26.38;12.25;;;;;;;23.09;60.52;100408.59;4979430;28;20054;-72
2022/07/21 06:43:10;;;;;;;28.15;11.65;;;;;;;23.29;60.52;100429.44;4986956;28;20061;-71
2022/07/21 06:45:56;;;;;;;29.20;12.38;;;;;;;23.19;59.81;100361.66;4988473;28;20058;-72
2022/07/21 06:48:24;;;;;;;25.00;12.23;;;;;;;23.62;59.60;100420.47;4988226;28;20450;-71
2022/07/21 06:50:53;;;;;;;26.33;13.23;;;;;;;23.73;59.91;100426.44;4978376;28;20503;-76
2022/07/21 06:53:21;;;;;;;22.77;12.55;;;;;;;23.76;59.44;100396.31;4981329;28;20065;-72
2022/07/21 06:55:52;;;;;;;26.90;12.18;;;;;;;24.09;59.27;100428.00;4977486;28;20082;-72
2022/07/21 06:58:28;;;;;;;25.33;12.20;;;;;;;24.11;59.17;100427.66;4984404;28;20055;-73
2022/07/21 07:01:02;;;;;;;26.08;12.88;;;;;;;24.10;58.46;100409.72;4988942;28;20133;-73
2022/07/21 07:03:29;;;;;;;27.60;10.70;;;;;;;24.25;58.34;100412.84;4984893;28;20066;-72
2022/07/21 07:05:56;;;;;;;17.92;9.95;;;;;;;24.22;58.09;100388.75;4985323;28;20058;-72
2022/07/21 07:08:23;;;;;;;23.33;10.65;;;;;;;24.65;57.74;100446.72;4989244;28;20074;-72
2022/07/21 07:10:50;;;;;;;22.25;10.65;;;;;;;24.60;57.69;100424.16;4989006;28;20089;-72
2022/07/21 07:13:17;;;;;;;21.35;10.63;;;;;;;24.73;57.24;100422.78;4987486;28;20881;-73
2022/07/21 07:16:04;;;;;;;22.70;10.77;;;;;;;25.13;56.88;100460.63;4986703;28;20057;-73
2022/07/21 07:18:32;;;;;;;18.77;9.98;;;;;;;25.16;56.79;100446.44;4972274;28;20161;-72
2022/07/21 07:20:59;;;;;;;23.08;10.77;;;;;;;25.29;56.33;100449.88;4988299;28;20081;-71
2022/07/21 07:23:26;;;;;;;23.05;10.20;;;;;;;25.27;55.83;100416.00;4988974;28;20447;-72
2022/07/21 07:25:53;;;;;;;19.13;9.73;;;;;;;25.38;55.75;100415.34;4985565;28;20182;-72
2022/07/21 07:28:20;;;;;;;18.58;9.10;;;;;;;25.69;55.40;100455.00;4981597;28;20140;-73
2022/07/21 07:30:48;;;;;;;20.02;10.98;;;;;;;25.65;55.23;100473.34;4980395;28;20058;-72
2022/07/21 07:33:15;;;;;;;20.10;10.30;;;;;;;25.41;55.23;100448.88;4983708;28;20081;-75
2022/07/21 07:35:42;;;;;;;17.73;9.75;;;;;;;25.25;55.50;100432.69;4985751;28;20083;-74
2022/07/21 07:38:14;;;;;;;20.02;9.68;;;;;;;25.64;54.59;100458.22;4978073;28;20539;-72
2022/07/21 07:40:42;;;;;;;15.88;8.52;;;;;;;26.02;54.18;100459.19;4980854;28;20065;-75
2022/07/21 07:43:09;;;;;;;20.63;8.80;;;;;;;26.17;53.96;100449.56;4978623;28;20054;-73
2022/07/21 07:45:37;;;;;;;12.95;8.45;;;;;;;26.46;53.68;100465.06;4983503;28;20133;-76
2022/07/21 07:48:06;;;;;;;19.48;8.43;;;;;;;26.66;53.38;100441.97;4986723;28;20582;-78
2022/07/21 07:50:33;;;;;;;9.93;6.85;;;;;;;26.68;52.75;100433.84;4987287;28;20537;-77
2022/07/21 07:53:00;;;;;;;15.18;8.25;;;;;;;26.67;53.20;100455.94;4983641;28;20046;-76
2022/07/21 07:55:27;;;;;;;11.63;6.97;;;;;;;26.66;52.91;100442.81;4981425;28;20054;-80
2022/07/21 07:57:54;;;;;;;13.73;7.35;;;;;;;26.72;53.04;100449.00;4978048;28;20124;-77
2022/07/21 08:00:21;;;;;;;13.82;7.47;;;;;;;26.88;52.77;100460.22;4975706;28;20139;-75
2022/07/21 08:03:07;;;;;;;13.13;7.03;;;;;;;27.48;51.86;100476.34;4982517;28;20435;-75
2022/07/21 08:05:34;;;;;;;12.85;8.35;;;;;;;27.96;51.12;100479.97;4975471;28;20112;-74
2022/07/21 08:08:01;;;;;;;10.57;6.75;;;;;;;28.13;50.40;100455.47;4980523;28;20708;-74
2022/07/21 08:10:29;;;;;;;11.52;6.53;;;;;;;28.55;49.93;100468.38;4983011;28;20114;-74
2022/07/21 08:13:14;;;;;;;14.10;6.90;;;;;;;28.66;49.53;100466.34;4982184;28;20042;-75
2022/07/21 08:15:42;;;;;;;13.35;6.65;;;;;;;28.70;49.58;100440.50;4979799;28;20093;-73
2022/07/21 08:18:09;;;;;;;14.20;7.82;;;;;;;29.05;48.61;100466.44;4979349;28;20502;-73
2022/07/21 08:20:36;;;;;;;17.42;7.60;;;;;;;29.16;48.62;100442.63;4979066;28;20124;-74
2022/07/21 08:23:04;;;;;;;11.95;6.68;;;;;;;29.22;47.81;100452.50;4985730;28;20158;-73
2022/07/21 08:25:32;;;;;;;13.40;7.93;;;;;;;29.21;48.20;100456.63;4983482;28;20137;-73
2022/07/21 08:27:59;;;;;;;16.58;8.35;;;;;;;29.03;47.93;100440.19;4989432;28;20104;-73
2022/07/21 08:30:26;;;;;;;16.52;7.97;;;;;;;29.09;47.53;100449.19;4986048;28;20057;-75
2022/07/21 08:32:58;;;;;;;19.23;8.93;;;;;;;29.17;47.93;100450.06;4991549;28;20068;-73
2022/07/21 08:35:25;;;;;;;14.65;8.15;;;;;;;29.27;47.07;100438.53;4985918;28;20054;-76
2022/07/21 08:37:55;;;;;;;20.20;7.35;;;;;;;29.43;47.37;100417.97;4990173;28;20054;-75
2022/07/21 08:40:27;;;;;;;12.55;7.03;;;;;;;29.84;46.91;100437.66;4985309;28;20097;-75
2022/07/21 08:42:54;;;;;;;12.30;7.30;;;;;;;30.19;46.00;100438.81;4989375;28;20054;-74
2022/07/21 08:45:30;;;;;;;15.75;7.10;;;;;;;30.13;45.79;100429.75;4984929;28;20057;-73
2022/07/21 08:47:58;;;;;;;15.35;6.53;;;;;;;30.37;46.17;100439.53;4986562;28;20053;-73
2022/07/21 08:50:29;;;;;;;16.10;7.82;;;;;;;30.62;45.24;100447.22;4992092;28;20137;-74
2022/07/21 08:52:56;;;;;;;13.77;7.38;;;;;;;30.66;45.20;100436.50;4988425;28;20133;-73
2022/07/21 08:55:35;;;;;;;15.52;7.07;;;;;;;30.84;44.65;100433.53;4987616;28;20069;-79
2022/07/21 08:58:03;;;;;;;14.43;6.65;;;;;;;30.96;44.96;100432.22;4984561;28;20137;-76
2022/07/21 09:00:42;;;;;;;13.55;6.80;;;;;;;31.29;44.02;100450.91;4980403;28;20047;-73
2022/07/21 09:03:17;;;;;;;16.42;7.22;;;;;;;31.50;44.24;100449.91;4986809;28;20065;-75
2022/07/21 09:06:07;;;;;;;13.20;6.28;;;;;;;31.65;43.49;100451.41;4986002;28;20054;-76
2022/07/21 09:08:35;;;;;;;;;;;;;;;31.74;44.24;100460.41;4979978;28;20090;-76
2022/07/21 09:11:12;;;;;;;15.05;7.95;;;;;;;31.90;44.04;100450.34;4984303;28;20441;-74
2022/07/21 09:13:40;;;;;;;17.88;7.38;;;;;;;32.03;42.59;100454.31;4985435;28;20141;-74
2022/07/21 09:16:07;;;;;;;10.77;6.60;;;;;;;32.07;42.47;100438.63;4985639;28;20085;-74
2022/07/21 09:18:47;;;;;;;14.38;6.55;;;;;;;32.22;42.42;100415.31;4987011;28;20062;-74
2022/07/21 09:21:16;;;;;;;14.45;7.38;;;;;;;32.53;42.10;100453.72;4986088;28;20050;-79
2022/07/21 09:23:43;;;;;;;16.15;7.18;;;;;;;32.05;41.89;100423.75;4978592;28;20133;-74
2022/07/21 09:26:10;;;;;;;21.02;7.70;;;;;;;32.23;41.90;100445.84;4985488;28;20178;-72
2022/07/21 09:28:37;;;;;;;16.38;8.15;;;;;;;32.38;41.56;100463.78;4987360;28;20082;-74
2022/07/21 09:31:09;;;;;;;13.90;7.10;;;;;;;32.07;41.91;100432.03;4978602;28;20062;-78
2022/07/21 09:33:43;;;;;;;13.23;8.00;;;;;;;32.18;41.75;100440.53;4979938;28;20050;-74
2022/07/21 09:36:12;;;;;;;13.70;7.50;;;;;;;32.58;41.37;100450.34;4984601;28;20073;-77
2022/07/21 09:38:44;;;;;;;11.93;7.47;;;;;;;32.88;40.96;100457.34;4980998;28;20136;-72
2022/07/21 09:41:14;;;;;;;19.95;8.75;;;;;;;32.80;40.68;100445.91;4978560;28;20089;-75
2022/07/21 09:43:52;;;;;;;15.32;9.20;;;;;;;32.25;41.05;100438.38;4982992;28;20089;-71
2022/07/21 09:46:24;;;;;;;21.65;8.88;;;;;;;31.97;41.09;100445.34;4985973;28;20133;-74
2022/07/21 09:48:54;;;;;;;25.27;9.15;;;;;;;31.56;41.62;100433.78;4984715;28;20047;-75
2022/07/21 09:51:43;;;;;;;17.42;8.57;;;;;;;31.61;41.71;100465.06;4964646;28;20081;-74
2022/07/21 09:54:12;;;;;;;17.92;9.35;;;;;;;31.39;41.86;100459.50;4987187;28;20066;-75
2022/07/21 09:56:42;;;;;;;23.17;10.15;;;;;;;31.16;42.73;100462.13;4979960;28;20054;-71
2022/07/21 09:59:10;;;;;;;17.77;9.52;;;;;;;31.49;41.67;100471.34;4982667;28;20176;-72
2022/07/21 10:01:38;;;;;;;17.80;9.57;;;;;;;31.65;41.11;100471.63;4984238;28;20093;-74
2022/07/21 10:04:06;;;;;;;20.93;10.00;;;;;;;31.29;41.80;100451.72;4979232;28;20061;-74
2022/07/21 10:06:45;;;;;;;22.60;10.00;;;;;;;31.12;42.24;100458.47;4983038;28;20051;-72
2022/07/21 10:09:15;;;;;;;23.17;10.30;;;;;;;31.18;42.17;100445.22;4983910;28;20137;-73
2022/07/21 10:11:44;;;;;;;21.95;9.07;;;;;;;31.41;41.67;100458.25;4980145;28;20779;-73
2022/07/21 10:14:12;;;;;;;18.27;9.95;;;;;;;31.19;41.91;100474.91;4981915;28;20146;-72
2022/07/21 10:16:40;;;;;;;22.95;10.13;;;;;;;30.63;42.45;100425.81;4983712;28;20061;-72
2022/07/21 10:19:26;;;;;;;21.60;10.85;;;;;;;30.82;42.69;100468.53;4982898;28;20046;-73
2022/07/21 10:22:12;;;;;;;19.85;10.30;;;;;;;31.03;42.35;100472.53;4987403;28;20096;-72
2022/07/21 10:24:40;;;;;;;22.65;11.00;;;;;;;31.27;42.28;100473.59;4982608;28;20096;-72
2022/07/21 10:27:09;;;;;;;18.88;10.32;;;;;;;31.23;42.03;100469.91;4985272;28;20549;-72
2022/07/21 10:30:15;;;;;;;16.67;9.75;;;;;;;31.16;42.77;100476.56;4979637;28;20105;-72
2022/07/21 10:32:49;;;;;;;18.90;10.25;;;;;;;30.93;42.68;100462.69;4984046;28;20145;-73
2022/07/21 10:35:30;;;;;;;19.73;11.07;;;;;;;30.79;43.10;100483.81;4985641;28;20089;-71
2022/07/21 10:38:02;;;;;;;17.33;9.27;;;;;;;30.58;43.21;100467.41;4979770;28;20054;-72
2022/07/21 10:40:29;;;;;;;21.08;11.02;;;;;;;30.63;43.13;100490.06;4981040;28;20157;-72
2022/07/21 10:42:59;;;;;;;16.42;9.20;;;;;;;30.63;43.21;100483.44;4986093;28;20154;-70
2022/07/21 10:45:40;;;;;;;20.50;10.93;;;;;;;30.63;43.42;100472.75;4979123;28;20050;-73
2022/07/21 10:48:27;;;;;;;19.83;10.13;;;;;;;31.05;42.84;100490.25;4981948;28;20161;-77
2022/07/21 10:50:58;;;;;;;22.10;9.75;;;;;;;30.69;43.44;100464.47;4979173;28;20137;-75
2022/07/21 10:53:25;;;;;;;19.98;9.52;;;;;;;30.91;43.47;100477.56;4983593;28;20074;-72
2022/07/21 10:55:54;;;;;;;16.20;8.70;;;;;;;31.42;43.27;100480.06;4983538;28;20089;-74
2022/07/21 10:58:26;;;;;;;20.92;9.23;;;;;;;31.79;42.27;100482.19;4980952;28;20120;-72
2022/07/21 11:01:04;;;;;;;20.35;8.88;;;;;;;31.71;42.35;100483.53;4983062;28;20101;-72
2022/07/21 11:03:40;;;;;;;16.55;9.52;;;;;;;31.89;41.97;100457.38;4985958;28;20062;-71
2022/07/21 11:06:21;;;;;;;17.00;8.85;;;;;;;32.10;41.70;100471.56;4977972;28;20468;-73
2022/07/21 11:09:04;;;;;;;25.10;8.88;;;;;;;32.21;41.64;100485.91;4981880;28;20051;-72
2022/07/21 11:11:33;;;;;;;20.50;9.10;;;;;;;31.99;41.41;100470.88;4978749;28;20077;-73
2022/07/21 11:14:09;;;;;;;16.77;9.60;;;;;;;32.18;41.52;100484.69;4982186;28;20078;-73
2022/07/21 11:16:56;;;;;;;21.67;9.00;;;;;;;32.31;41.17;100482.88;4982356;28;20479;-75
2022/07/21 11:19:49;;;;;;;13.02;7.82;;;;;;;32.17;41.20;100488.84;4979397;28;20093;-78
2022/07/21 11:22:17;;;;;;;14.48;7.60;;;;;;;32.06;41.34;100497.59;4979879;28;20070;-73
2022/07/21 11:24:47;;;;;;;17.53;7.97;;;;;;;32.06;41.79;100462.94;4986536;28;20089;-74
2022/07/21 11:27:17;;;;;;;15.13;7.70;;;;;;;32.63;40.78;100487.47;4983421;28;20169;-74
2022/07/21 11:29:52;;;;;;;19.20;8.27;;;;;;;32.76;40.51;100474.06;4976358;28;20519;-73